createdAt,value
2019-03-05T00:00:46.009Z,7.70
2019-03-05T00:01:46.023Z,7.75
2019-03-05T00:02:46.026Z,7.79
2019-03-05T00:03:46.038Z,7.80
2019-03-05T00:04:45.972Z,7.80
2019-03-05T00:05:45.955Z,7.77
2019-03-05T00:06:45.946Z,7.87
2019-03-05T00:07:45.934Z,7.82
2019-03-05T00:08:45.962Z,7.87
2019-03-05T00:09:45.917Z,7.85
2019-03-05T00:10:45.917Z,7.80
2019-03-05T00:11:45.910Z,7.76
2019-03-05T00:12:45.884Z,7.82
2019-03-05T00:13:45.870Z,7.79
2019-03-05T00:14:45.927Z,7.87
2019-03-05T00:15:45.853Z,7.83
2019-03-05T00:16:45.845Z,7.82
2019-03-05T00:17:45.822Z,7.91
2019-03-05T00:18:45.835Z,7.90
2019-03-05T00:19:45.850Z,7.91
2019-03-05T00:20:45.789Z,7.95
2019-03-05T00:21:45.812Z,7.97
2019-03-05T00:22:45.797Z,7.95
2019-03-05T00:23:45.763Z,8.00
2019-03-05T00:24:45.782Z,7.97
2019-03-05T00:25:45.784Z,7.97
2019-03-05T00:26:45.752Z,8.01
2019-03-05T00:27:45.743Z,7.98
2019-03-05T00:28:45.705Z,7.90
2019-03-05T00:29:45.722Z,7.97
2019-03-05T00:30:45.831Z,8.00
2019-03-05T00:31:45.668Z,7.98
2019-03-05T00:32:45.677Z,8.01
2019-03-05T00:33:45.671Z,8.03
2019-03-05T00:34:45.642Z,7.94
2019-03-05T00:35:45.672Z,8.08
2019-03-05T00:36:45.637Z,8.06
2019-03-05T00:37:45.619Z,8.03
2019-03-05T00:38:45.643Z,8.05
2019-03-05T00:39:45.615Z,8.05
2019-03-05T00:40:45.579Z,8.05
2019-03-05T00:41:45.574Z,7.98
2019-03-05T00:42:45.582Z,7.94
2019-03-05T00:43:45.545Z,7.97
2019-03-05T00:44:45.570Z,7.97
2019-03-05T00:45:45.526Z,8.08
2019-03-05T00:46:45.544Z,8.01
2019-03-05T00:47:45.507Z,8.12
2019-03-05T00:48:45.513Z,8.06
2019-03-05T00:49:45.475Z,8.12
2019-03-05T00:50:45.509Z,8.10
2019-03-05T00:51:54.480Z,8.10
2019-03-05T00:52:45.444Z,8.12
2019-03-05T00:53:45.490Z,8.13
2019-03-05T00:54:45.451Z,8.15
2019-03-05T00:55:45.433Z,8.09
2019-03-05T00:56:45.411Z,8.13
2019-03-05T00:57:45.415Z,8.09
2019-03-05T00:58:45.380Z,8.09
2019-03-05T00:59:45.414Z,8.12
2019-03-05T01:00:45.472Z,8.15
2019-03-05T01:01:46.640Z,8.12
2019-03-05T01:02:45.329Z,8.10
2019-03-05T01:03:45.372Z,8.10
2019-03-05T01:04:45.333Z,8.12
2019-03-05T01:05:45.296Z,8.03
2019-03-05T01:06:45.285Z,8.09
2019-03-05T01:07:45.272Z,8.15
2019-03-05T01:08:45.261Z,8.12
2019-03-05T01:09:45.297Z,8.09
2019-03-05T01:10:45.247Z,8.16
2019-03-05T01:11:45.278Z,8.13
2019-03-05T01:12:45.221Z,8.13
2019-03-05T01:13:45.209Z,8.15
2019-03-05T01:14:45.249Z,8.12
2019-03-05T01:15:45.183Z,8.12
2019-03-05T01:16:45.172Z,8.08
2019-03-05T01:17:45.168Z,8.10
2019-03-05T01:18:45.157Z,8.12
2019-03-05T01:19:45.171Z,8.15
2019-03-05T01:20:45.127Z,8.16
2019-03-05T01:21:45.116Z,8.12
2019-03-05T01:22:45.105Z,8.15
2019-03-05T01:23:45.106Z,8.13
2019-03-05T01:24:45.098Z,8.10
2019-03-05T01:25:45.132Z,8.10
2019-03-05T01:26:45.064Z,8.16
2019-03-05T01:27:45.083Z,8.13
2019-03-05T01:28:45.039Z,8.08
2019-03-05T01:29:45.028Z,8.08
2019-03-05T01:30:45.015Z,8.03
2019-03-05T01:31:45.013Z,8.13
2019-03-05T01:32:45.052Z,8.00
2019-03-05T01:33:44.983Z,8.08
2019-03-05T01:34:44.978Z,8.09
2019-03-05T01:35:44.979Z,8.03
2019-03-05T01:36:44.956Z,8.09
2019-03-05T01:37:44.979Z,8.06
2019-03-05T01:38:44.939Z,8.12
2019-03-05T01:39:44.917Z,7.97
2019-03-05T01:40:44.911Z,7.95
2019-03-05T01:41:44.896Z,7.93
2019-03-05T01:42:44.887Z,7.90
2019-03-05T01:43:44.937Z,7.95
2019-03-05T01:44:44.876Z,7.97
2019-03-05T01:45:44.858Z,7.98
2019-03-05T01:46:44.873Z,8.01
2019-03-05T01:47:44.827Z,8.08
2019-03-05T01:48:44.818Z,8.05
2019-03-05T01:49:44.868Z,8.00
2019-03-05T01:50:44.801Z,7.95
2019-03-05T01:51:44.792Z,7.97
2019-03-05T01:52:44.779Z,7.88
2019-03-05T01:53:44.791Z,7.94
2019-03-05T01:54:44.803Z,7.88
2019-03-05T01:55:44.749Z,7.94
2019-03-05T01:56:44.737Z,7.88
2019-03-05T01:57:44.730Z,7.88
2019-03-05T01:58:44.741Z,7.94
2019-03-05T01:59:44.742Z,7.85
2019-03-05T02:00:44.690Z,7.90
2019-03-05T02:01:44.677Z,7.91
2019-03-05T02:02:44.716Z,7.94
2019-03-05T02:03:44.669Z,7.87
2019-03-05T02:04:44.682Z,7.83
2019-03-05T02:05:44.634Z,7.83
2019-03-05T02:06:44.636Z,7.82
2019-03-05T02:07:44.620Z,7.88
2019-03-05T02:08:44.607Z,7.80
2019-03-05T02:09:44.618Z,7.80
2019-03-05T02:10:44.634Z,7.73
2019-03-05T02:11:44.568Z,7.72
2019-03-05T02:12:44.559Z,7.63
2019-03-05T02:13:44.561Z,7.69
2019-03-05T02:14:44.536Z,7.58
2019-03-05T02:15:44.531Z,7.60
2019-03-05T02:16:44.568Z,7.61
2019-03-05T02:17:44.513Z,7.56
2019-03-05T02:18:44.496Z,7.75
2019-03-05T02:19:44.482Z,7.75
2019-03-05T02:20:44.470Z,7.80
2019-03-05T02:21:44.462Z,7.67
2019-03-05T02:22:44.499Z,7.73
2019-03-05T02:23:44.586Z,7.69
2019-03-05T02:24:44.567Z,7.82
2019-03-05T02:25:44.441Z,7.73
2019-03-05T02:26:44.416Z,7.79
2019-03-05T02:27:44.426Z,7.73
2019-03-05T02:28:44.403Z,7.73
2019-03-05T02:29:44.376Z,7.73
2019-03-05T02:30:44.370Z,7.67
2019-03-05T02:31:44.353Z,7.69
2019-03-05T02:32:44.341Z,7.73
2019-03-05T02:33:44.376Z,7.75
2019-03-05T02:34:44.315Z,7.61
2019-03-05T02:35:44.315Z,7.60
2019-03-05T02:36:44.344Z,7.51
2019-03-05T02:37:44.283Z,7.36
2019-03-05T02:38:44.489Z,7.43
2019-03-05T02:39:44.316Z,7.35
2019-03-05T02:40:44.264Z,7.35
2019-03-05T02:41:44.320Z,7.32
2019-03-05T02:42:44.266Z,7.33
2019-03-05T02:43:44.240Z,7.35
2019-03-05T02:44:44.441Z,7.36
2019-03-05T02:45:44.204Z,7.36
2019-03-05T02:46:44.240Z,7.36
2019-03-05T02:47:44.186Z,7.24
2019-03-05T02:48:44.167Z,7.21
2019-03-05T02:49:44.191Z,7.29
2019-03-05T02:50:44.150Z,7.31
2019-03-05T02:51:44.126Z,7.32
2019-03-05T02:52:44.139Z,7.32
2019-03-05T02:53:44.116Z,7.33
2019-03-05T02:54:44.105Z,7.32
2019-03-05T02:55:44.085Z,7.28
2019-03-05T02:56:44.079Z,7.23
2019-03-05T02:57:44.087Z,7.20
2019-03-05T02:58:44.053Z,7.21
2019-03-05T02:59:44.052Z,7.25
2019-03-05T03:00:44.037Z,7.33
2019-03-05T03:01:44.064Z,7.23
2019-03-05T03:02:44.020Z,7.32
2019-03-05T03:03:44.000Z,7.25
2019-03-05T03:04:43.992Z,7.21
2019-03-05T03:05:43.976Z,7.23
2019-03-05T03:06:44.016Z,7.29
2019-03-05T03:07:43.964Z,7.33
2019-03-05T03:08:43.949Z,7.35
2019-03-05T03:09:43.934Z,7.32
2019-03-05T03:10:43.926Z,7.29
2019-03-05T03:11:43.944Z,7.29
2019-03-05T03:12:43.942Z,7.35
2019-03-05T03:13:43.907Z,7.33
2019-03-05T03:14:43.890Z,7.17
2019-03-05T03:15:43.871Z,7.24
2019-03-05T03:16:43.895Z,7.20
2019-03-05T03:17:43.882Z,7.23
2019-03-05T03:18:43.837Z,7.24
2019-03-05T03:19:43.833Z,7.18
2019-03-05T03:20:43.824Z,7.33
2019-03-05T03:21:43.815Z,7.32
2019-03-05T03:22:43.802Z,7.32
2019-03-05T03:23:43.835Z,7.45
2019-03-05T03:24:43.774Z,7.43
2019-03-05T03:25:43.773Z,7.47
2019-03-05T03:26:43.760Z,7.47
2019-03-05T03:27:43.740Z,7.43
2019-03-05T03:28:43.775Z,7.38
2019-03-05T03:29:43.721Z,7.39
2019-03-05T03:30:43.710Z,7.47
2019-03-05T03:31:43.712Z,7.42
2019-03-05T03:32:43.708Z,7.47
2019-03-05T03:33:43.731Z,7.45
2019-03-05T03:34:43.669Z,7.47
2019-03-05T03:35:43.659Z,7.40
2019-03-05T03:36:43.663Z,7.48
2019-03-05T03:37:43.650Z,7.51
2019-03-05T03:38:43.629Z,7.39
2019-03-05T03:39:43.672Z,7.48
2019-03-05T03:40:43.603Z,7.50
2019-03-05T03:41:43.597Z,7.56
2019-03-05T03:42:43.586Z,7.58
2019-03-05T03:43:43.612Z,7.53
2019-03-05T03:44:43.601Z,7.61
2019-03-05T03:45:43.544Z,7.61
2019-03-05T03:46:43.535Z,7.58
2019-03-05T03:47:43.531Z,7.70
2019-03-05T03:48:43.526Z,7.75
2019-03-05T03:49:43.571Z,7.73
2019-03-05T03:50:43.497Z,7.75
2019-03-05T03:51:43.484Z,7.72
2019-03-05T03:52:43.554Z,7.82
2019-03-05T03:53:43.462Z,7.82
2019-03-05T03:54:43.448Z,7.80
2019-03-05T03:55:43.484Z,7.91
2019-03-05T03:56:43.433Z,7.94
2019-03-05T03:57:43.422Z,7.97
2019-03-05T03:58:43.414Z,7.87
2019-03-05T03:59:43.409Z,7.80
2019-03-05T04:00:43.438Z,7.82
2019-03-05T04:01:43.383Z,7.79
2019-03-05T04:02:43.396Z,7.80
2019-03-05T04:03:43.400Z,7.77
2019-03-05T04:04:43.349Z,7.82
2019-03-05T04:05:43.380Z,7.80
2019-03-05T04:06:43.321Z,7.88
2019-03-05T04:07:43.313Z,7.95
2019-03-05T04:08:43.301Z,7.87
2019-03-05T04:09:43.320Z,7.94
2019-03-05T04:10:43.331Z,7.91
2019-03-05T04:11:43.265Z,7.94
2019-03-05T04:12:43.299Z,7.94
2019-03-05T04:13:43.250Z,8.06
2019-03-05T04:14:43.238Z,8.06
2019-03-05T04:15:43.235Z,8.01
2019-03-05T04:16:43.221Z,7.98
2019-03-05T04:17:43.201Z,8.00
2019-03-05T04:18:43.233Z,7.97
2019-03-05T04:19:43.184Z,7.97
2019-03-05T04:20:43.180Z,7.98
2019-03-05T04:21:43.162Z,7.94
2019-03-05T04:22:43.156Z,7.95
2019-03-05T04:23:43.142Z,7.88
2019-03-05T04:24:43.163Z,7.83
2019-03-05T04:25:43.114Z,7.83
2019-03-05T04:26:43.105Z,7.93
2019-03-05T04:27:43.099Z,7.98
2019-03-05T04:28:43.093Z,8.01
2019-03-05T04:29:43.077Z,7.93
2019-03-05T04:30:43.100Z,7.98
2019-03-05T04:31:43.058Z,8.05
2019-03-05T04:32:43.041Z,8.05
2019-03-05T04:33:43.057Z,8.00
2019-03-05T04:34:43.029Z,7.93
2019-03-05T04:35:43.043Z,7.95
2019-03-05T04:36:42.999Z,8.01
2019-03-05T04:37:42.984Z,7.95
2019-03-05T04:38:42.973Z,7.93
2019-03-05T04:39:42.972Z,7.93
2019-03-05T04:40:42.972Z,7.97
2019-03-05T04:41:42.984Z,7.91
2019-03-05T04:42:42.935Z,7.90
2019-03-05T04:43:42.923Z,7.85
2019-03-05T04:44:42.907Z,7.66
2019-03-05T04:45:42.913Z,7.83
2019-03-05T04:46:42.932Z,7.80
2019-03-05T04:47:42.876Z,7.80
2019-03-05T04:48:42.864Z,7.93
2019-03-05T04:49:42.859Z,7.95
2019-03-05T04:50:42.843Z,7.97
2019-03-05T04:51:42.867Z,7.98
2019-03-05T04:52:42.826Z,7.87
2019-03-05T04:53:42.814Z,7.85
2019-03-05T04:54:42.801Z,7.83
2019-03-05T04:55:42.786Z,7.77
2019-03-05T04:56:42.834Z,7.75
2019-03-05T04:57:42.760Z,7.80
2019-03-05T04:58:42.748Z,7.85
2019-03-05T04:59:42.753Z,7.69
2019-03-05T05:00:42.755Z,7.67
2019-03-05T05:01:42.717Z,7.73
2019-03-05T05:02:42.749Z,7.70
2019-03-05T05:03:42.735Z,7.70
2019-03-05T05:04:42.706Z,7.69
2019-03-05T05:05:42.688Z,7.66
2019-03-05T05:06:42.666Z,7.83
2019-03-05T05:07:42.714Z,7.82
2019-03-05T05:08:42.687Z,7.73
2019-03-05T05:09:42.673Z,7.72
2019-03-05T05:10:42.701Z,7.72
2019-03-05T05:11:42.616Z,7.73
2019-03-05T05:12:42.627Z,7.76
2019-03-05T05:13:42.594Z,7.72
2019-03-05T05:14:42.578Z,7.75
2019-03-05T05:15:42.560Z,7.72
2019-03-05T05:16:42.565Z,7.72
2019-03-05T05:17:42.593Z,7.69
2019-03-05T05:18:42.554Z,7.56
2019-03-05T05:19:42.522Z,7.61
2019-03-05T05:20:42.526Z,7.75
2019-03-05T05:21:42.498Z,7.72
2019-03-05T05:22:42.529Z,7.75
2019-03-05T05:23:42.487Z,7.70
2019-03-05T05:24:42.500Z,7.69
2019-03-05T05:25:42.463Z,7.80
2019-03-05T05:26:42.445Z,7.63
2019-03-05T05:27:42.482Z,7.83
2019-03-05T05:28:42.459Z,7.63
2019-03-05T05:29:42.411Z,7.58
2019-03-05T05:30:42.393Z,7.54
2019-03-05T05:31:42.421Z,7.51
2019-03-05T05:32:42.385Z,7.51
2019-03-05T05:33:42.372Z,7.53
2019-03-05T05:34:42.401Z,7.60
2019-03-05T05:35:42.350Z,7.54
2019-03-05T05:36:42.336Z,7.56
2019-03-05T05:37:42.329Z,7.58
2019-03-05T05:38:42.737Z,7.54
2019-03-05T05:39:42.296Z,7.58
2019-03-05T05:40:42.321Z,7.53
2019-03-05T05:41:42.342Z,7.63
2019-03-05T05:42:42.267Z,7.58
2019-03-05T05:43:42.261Z,7.69
2019-03-05T05:44:42.258Z,7.67
2019-03-05T05:45:42.250Z,7.69
2019-03-05T05:46:42.273Z,7.72
2019-03-05T05:47:42.219Z,7.75
2019-03-05T05:48:42.222Z,7.70
2019-03-05T05:49:42.199Z,7.82
2019-03-05T05:50:42.191Z,7.72
2019-03-05T05:51:44.337Z,7.70
2019-03-05T05:52:42.211Z,7.70
2019-03-05T05:53:42.154Z,7.60
2019-03-05T05:54:42.145Z,7.63
2019-03-05T05:55:42.136Z,7.72
2019-03-05T05:56:42.126Z,7.70
2019-03-05T05:57:42.122Z,7.70
2019-03-05T05:58:42.181Z,7.72
2019-03-05T05:59:42.107Z,7.75
2019-03-05T06:00:42.090Z,7.72
2019-03-05T06:01:42.155Z,7.69
2019-03-05T06:02:42.057Z,7.61
2019-03-05T06:03:42.076Z,7.54
2019-03-05T06:04:42.031Z,7.61
2019-03-05T06:05:42.020Z,7.60
2019-03-05T06:06:42.003Z,7.61
2019-03-05T06:07:42.011Z,7.58
2019-03-05T06:08:42.076Z,7.66
2019-03-05T06:09:42.021Z,7.61
2019-03-05T06:10:41.972Z,7.60
2019-03-05T06:11:41.962Z,7.63
2019-03-05T06:12:41.942Z,7.56
2019-03-05T06:13:41.983Z,7.63
2019-03-05T06:14:41.938Z,7.63
2019-03-05T06:15:41.925Z,7.75
2019-03-05T06:16:41.907Z,7.73
2019-03-05T06:17:41.906Z,7.72
2019-03-05T06:18:41.884Z,7.77
2019-03-05T06:19:41.898Z,7.80
2019-03-05T06:20:42.826Z,7.83
2019-03-05T06:21:41.865Z,7.67
2019-03-05T06:22:41.865Z,7.76
2019-03-05T06:23:41.820Z,7.73
2019-03-05T06:24:41.849Z,7.73
2019-03-05T06:25:41.805Z,7.77
2019-03-05T06:26:41.791Z,7.70
2019-03-05T06:27:41.788Z,7.75
2019-03-05T06:28:41.786Z,7.70
2019-03-05T06:29:41.764Z,7.70
2019-03-05T06:30:41.791Z,7.82
2019-03-05T06:31:41.735Z,7.83
2019-03-05T06:32:41.731Z,7.77
2019-03-05T06:33:41.778Z,7.82
2019-03-05T06:34:41.712Z,7.82
2019-03-05T06:35:41.736Z,7.83
2019-03-05T06:36:41.734Z,7.80
2019-03-05T06:37:41.673Z,7.83
2019-03-05T06:38:41.659Z,7.80
2019-03-05T06:39:41.653Z,7.91
2019-03-05T06:40:41.640Z,7.87
2019-03-05T06:41:41.671Z,7.91
2019-03-05T06:42:41.622Z,7.94
2019-03-05T06:43:41.609Z,7.91
2019-03-05T06:44:41.591Z,7.91
2019-03-05T06:45:41.629Z,7.94
2019-03-05T06:46:41.571Z,7.97
2019-03-05T06:47:41.592Z,8.00
2019-03-05T06:48:41.553Z,7.98
2019-03-05T06:49:41.553Z,7.95
2019-03-05T06:50:41.529Z,7.98
2019-03-05T06:51:41.521Z,8.00
2019-03-05T06:52:41.540Z,8.08
2019-03-05T06:53:41.516Z,8.10
2019-03-05T06:54:41.490Z,8.09
2019-03-05T06:55:41.467Z,8.01
2019-03-05T06:56:41.505Z,8.13
2019-03-05T06:57:41.461Z,8.06
2019-03-05T06:58:41.479Z,8.01
2019-03-05T06:59:41.434Z,8.10
2019-03-05T07:00:41.426Z,8.12
2019-03-05T07:01:41.410Z,8.15
2019-03-05T07:02:41.414Z,8.26
2019-03-05T07:03:41.390Z,8.16
2019-03-05T07:04:41.402Z,8.18
2019-03-05T07:05:41.363Z,8.34
2019-03-05T07:06:41.357Z,8.33
2019-03-05T07:07:41.421Z,8.18
2019-03-05T07:08:41.425Z,8.19
2019-03-05T07:09:41.327Z,8.15
2019-03-05T07:10:41.315Z,8.16
2019-03-05T07:11:41.307Z,8.10
2019-03-05T07:12:41.296Z,8.15
2019-03-05T07:13:41.306Z,8.18
2019-03-05T07:14:41.280Z,8.12
2019-03-05T07:15:41.259Z,8.26
2019-03-05T07:16:41.247Z,8.18
2019-03-05T07:17:41.256Z,8.23
2019-03-05T07:18:41.285Z,8.13
2019-03-05T07:19:41.218Z,8.30
2019-03-05T07:20:41.206Z,8.37
2019-03-05T07:21:41.208Z,8.42
2019-03-05T07:22:41.185Z,8.41
2019-03-05T07:23:43.078Z,8.45
2019-03-05T07:24:41.157Z,8.55
2019-03-05T07:25:41.155Z,8.53
2019-03-05T07:26:41.143Z,8.48
2019-03-05T07:27:41.130Z,8.49
2019-03-05T07:28:41.116Z,8.46
2019-03-05T07:29:41.206Z,8.60
2019-03-05T07:30:41.093Z,8.58
2019-03-05T07:31:41.087Z,8.70
2019-03-05T07:32:41.079Z,8.74
2019-03-05T07:33:41.062Z,8.74
2019-03-05T07:34:41.105Z,8.70
2019-03-05T07:35:41.039Z,8.82
2019-03-05T07:36:41.053Z,8.82
2019-03-05T07:37:41.024Z,8.85
2019-03-05T07:38:41.008Z,8.91
2019-03-05T07:39:41.003Z,8.97
2019-03-05T07:40:41.058Z,8.97
2019-03-05T07:41:40.987Z,9.04
2019-03-05T07:42:40.962Z,9.00
2019-03-05T07:43:40.957Z,9.03
2019-03-05T07:44:40.946Z,9.04
2019-03-05T07:45:41.000Z,9.13
2019-03-05T07:46:40.940Z,9.04
2019-03-05T07:47:40.910Z,9.08
2019-03-05T07:48:40.901Z,9.18
2019-03-05T07:49:44.036Z,9.19
2019-03-05T07:50:40.922Z,9.22
2019-03-05T07:51:40.906Z,9.26
2019-03-05T07:52:40.863Z,9.25
2019-03-05T07:53:40.849Z,9.23
2019-03-05T07:54:40.838Z,9.25
2019-03-05T07:55:40.883Z,9.39
2019-03-05T07:56:40.862Z,9.41
2019-03-05T07:57:40.904Z,9.48
2019-03-05T07:58:40.797Z,9.48
2019-03-05T07:59:40.786Z,9.59
2019-03-05T08:00:40.773Z,9.55
2019-03-05T08:01:40.831Z,9.66
2019-03-05T08:02:40.755Z,9.56
2019-03-05T08:03:40.775Z,9.77
2019-03-05T08:04:40.744Z,9.83
2019-03-05T08:05:40.726Z,9.80
2019-03-05T08:06:40.759Z,9.95
2019-03-05T08:07:40.741Z,9.76
2019-03-05T08:08:40.685Z,9.80
2019-03-05T08:09:40.682Z,9.76
2019-03-05T08:10:40.672Z,9.69
2019-03-05T08:11:40.657Z,9.73
2019-03-05T08:12:40.701Z,9.61
2019-03-05T08:13:40.630Z,9.61
2019-03-05T08:14:40.619Z,9.73
2019-03-05T08:15:40.792Z,9.61
2019-03-05T08:16:40.614Z,9.58
2019-03-05T08:17:40.643Z,9.39
2019-03-05T08:18:40.586Z,9.22
2019-03-05T08:19:40.612Z,9.04
2019-03-05T08:20:40.555Z,9.10
2019-03-05T08:21:40.586Z,9.29
2019-03-05T08:22:40.543Z,9.26
2019-03-05T08:23:40.585Z,9.13
2019-03-05T08:24:40.513Z,9.18
2019-03-05T08:25:40.567Z,9.11
2019-03-05T08:26:40.494Z,9.10
2019-03-05T08:27:40.533Z,9.03
2019-03-05T08:28:40.477Z,9.08
2019-03-05T08:29:40.456Z,9.02
2019-03-05T08:30:40.498Z,9.03
2019-03-05T08:31:40.445Z,8.94
2019-03-05T08:32:40.432Z,9.06
2019-03-05T08:33:40.467Z,9.10
2019-03-05T08:34:40.452Z,9.25
2019-03-05T08:35:40.452Z,9.11
2019-03-05T08:36:40.433Z,9.03
2019-03-05T08:37:40.368Z,9.04
2019-03-05T08:38:40.358Z,9.16
2019-03-05T08:39:40.359Z,9.08
2019-03-05T08:40:40.390Z,9.10
2019-03-05T08:41:40.332Z,9.37
2019-03-05T08:42:40.324Z,9.55
2019-03-05T08:43:40.306Z,9.64
2019-03-05T08:44:49.971Z,9.69
2019-03-05T08:45:41.330Z,9.61
2019-03-05T08:46:40.307Z,9.79
2019-03-05T08:47:40.263Z,10.20
2019-03-05T08:48:40.260Z,10.15
2019-03-05T08:49:40.241Z,10.37
2019-03-05T08:50:40.266Z,10.74
2019-03-05T08:51:40.273Z,10.86
2019-03-05T08:52:40.226Z,10.90
2019-03-05T08:53:49.280Z,11.00
2019-03-05T08:54:41.197Z,10.71
2019-03-05T08:55:40.178Z,10.67
2019-03-05T08:56:40.168Z,10.59
2019-03-05T08:57:40.224Z,10.61
2019-03-05T08:58:40.142Z,10.48
2019-03-05T08:59:40.137Z,10.41
2019-03-05T09:00:40.129Z,10.17
2019-03-05T09:01:40.179Z,10.30
2019-03-05T09:02:48.011Z,10.38
2019-03-05T09:03:41.094Z,11.52
2019-03-05T09:04:40.101Z,12.60
2019-03-05T09:05:40.072Z,14.18
2019-03-05T09:06:40.059Z,15.11
2019-03-05T09:07:40.084Z,15.42
2019-03-05T09:08:40.049Z,15.22
2019-03-05T09:09:40.024Z,15.94
2019-03-05T09:10:40.012Z,16.28
2019-03-05T09:11:40.007Z,15.52
2019-03-05T09:12:40.032Z,14.20
2019-03-05T09:13:39.993Z,13.27
2019-03-05T09:14:39.975Z,12.40
2019-03-05T09:15:39.965Z,11.83
2019-03-05T09:16:39.944Z,11.52
2019-03-05T09:17:39.962Z,11.36
2019-03-05T09:18:39.982Z,11.65
2019-03-05T09:19:39.916Z,11.55
2019-03-05T09:20:39.903Z,11.40
2019-03-05T09:21:39.909Z,10.79
2019-03-05T09:22:39.956Z,10.57
2019-03-05T09:23:39.881Z,10.54
2019-03-05T09:24:39.871Z,10.37
2019-03-05T09:25:39.860Z,10.31
2019-03-05T09:26:50.487Z,10.35
2019-03-05T09:27:40.862Z,10.25
2019-03-05T09:28:39.814Z,10.33
2019-03-05T09:29:39.806Z,10.12
2019-03-05T09:30:39.835Z,10.09
2019-03-05T09:31:39.789Z,10.12
2019-03-05T09:32:39.777Z,10.17
2019-03-05T09:33:39.793Z,10.09
2019-03-05T09:34:39.768Z,10.84
2019-03-05T09:35:39.764Z,11.41
2019-03-05T09:36:50.004Z,11.27
2019-03-05T09:37:40.815Z,11.23
2019-03-05T09:38:39.709Z,11.22
2019-03-05T09:39:39.697Z,11.12
2019-03-05T09:40:39.685Z,11.69
2019-03-05T09:41:39.675Z,12.61
2019-03-05T09:42:40.329Z,12.47
2019-03-05T09:43:39.677Z,12.10
2019-03-05T09:44:39.752Z,12.12
2019-03-05T09:45:39.648Z,11.97
2019-03-05T09:46:39.627Z,11.77
2019-03-05T09:47:39.635Z,11.54
2019-03-05T09:48:39.599Z,11.40
2019-03-05T09:49:39.591Z,11.18
2019-03-05T09:50:39.589Z,11.00
2019-03-05T09:51:39.625Z,10.81
2019-03-05T09:52:39.600Z,10.69
2019-03-05T09:53:39.543Z,10.60
2019-03-05T09:54:39.534Z,10.57
2019-03-05T09:55:39.526Z,10.51
2019-03-05T09:56:39.546Z,10.57
2019-03-05T09:57:39.536Z,10.57
2019-03-05T09:58:39.544Z,10.57
2019-03-05T09:59:39.521Z,10.57
2019-03-05T10:00:39.468Z,10.57
2019-03-05T10:01:39.501Z,10.56
2019-03-05T10:02:39.521Z,10.38
2019-03-05T10:03:39.442Z,10.30
2019-03-05T10:04:39.467Z,10.30
2019-03-05T10:05:39.524Z,10.23
2019-03-05T10:06:39.403Z,10.17
2019-03-05T10:07:39.439Z,10.07
2019-03-05T10:08:39.391Z,9.99
2019-03-05T10:09:39.378Z,9.82
2019-03-05T10:10:39.404Z,9.77
2019-03-05T10:11:39.381Z,9.83
2019-03-05T10:12:39.365Z,11.02
2019-03-05T10:13:39.392Z,11.04
2019-03-05T10:14:39.338Z,10.68
2019-03-05T10:15:39.350Z,10.71
2019-03-05T10:16:39.312Z,10.78
2019-03-05T10:17:39.289Z,10.67
2019-03-05T10:18:39.432Z,11.15
2019-03-05T10:19:39.263Z,11.23
2019-03-05T10:20:39.292Z,11.33
2019-03-05T10:21:46.136Z,11.27
2019-03-05T10:22:40.231Z,11.70
2019-03-05T10:23:39.221Z,11.65
2019-03-05T10:24:39.210Z,12.20
2019-03-05T10:25:39.234Z,12.39
2019-03-05T10:26:39.182Z,12.49
2019-03-05T10:27:39.181Z,12.32
2019-03-05T10:28:39.173Z,12.21
2019-03-05T10:29:39.157Z,11.97
2019-03-05T10:30:39.186Z,11.84
2019-03-05T10:31:39.128Z,11.78
2019-03-05T10:32:39.121Z,11.63
2019-03-05T10:33:39.103Z,11.68
2019-03-05T10:34:39.091Z,11.99
2019-03-05T10:35:39.092Z,11.95
2019-03-05T10:36:39.113Z,12.04
2019-03-05T10:37:39.066Z,12.32
2019-03-05T10:38:39.129Z,12.72
2019-03-05T10:39:39.041Z,12.86
2019-03-05T10:40:39.068Z,13.13
2019-03-05T10:41:39.053Z,13.09
2019-03-05T10:42:41.208Z,12.58
2019-03-05T10:43:38.990Z,12.58
2019-03-05T10:44:38.983Z,12.28
2019-03-05T10:45:39.003Z,12.13
2019-03-05T10:46:38.958Z,11.94
2019-03-05T10:47:38.954Z,11.88
2019-03-05T10:48:38.945Z,12.06
2019-03-05T10:49:38.933Z,12.04
2019-03-05T10:50:38.922Z,12.04
2019-03-05T10:51:38.940Z,11.91
2019-03-05T10:52:38.894Z,12.10
2019-03-05T10:53:38.896Z,12.10
2019-03-05T10:54:38.880Z,11.94
2019-03-05T10:55:38.863Z,12.27
2019-03-05T10:56:38.882Z,12.04
2019-03-05T10:57:38.842Z,12.03
2019-03-05T10:58:38.831Z,11.97
2019-03-05T10:59:38.824Z,11.84
2019-03-05T11:00:38.820Z,11.91
2019-03-05T11:01:38.836Z,11.50
2019-03-05T11:02:38.789Z,11.27
2019-03-05T11:03:38.775Z,11.43
2019-03-05T11:04:45.625Z,11.15
2019-03-05T11:05:39.761Z,11.35
2019-03-05T11:06:38.743Z,10.97
2019-03-05T11:07:39.152Z,10.79
2019-03-05T11:08:38.742Z,10.86
2019-03-05T11:09:38.715Z,10.76
2019-03-05T11:10:41.089Z,10.86
2019-03-05T11:11:38.708Z,10.78
2019-03-05T11:12:38.726Z,10.86
2019-03-05T11:13:38.746Z,10.82
2019-03-05T11:14:38.664Z,10.81
2019-03-05T11:15:38.654Z,10.76
2019-03-05T11:16:38.658Z,10.64
2019-03-05T11:17:38.632Z,10.72
2019-03-05T11:18:38.652Z,10.64
2019-03-05T11:19:38.610Z,10.60
2019-03-05T11:20:38.596Z,10.59
2019-03-05T11:21:38.596Z,10.44
2019-03-05T11:22:38.586Z,10.35
2019-03-05T11:23:38.597Z,10.34
2019-03-05T11:24:38.546Z,10.41
2019-03-05T11:25:38.537Z,10.42
2019-03-05T11:26:38.527Z,10.53
2019-03-05T11:27:38.530Z,10.57
2019-03-05T11:28:38.507Z,10.75
2019-03-05T11:29:38.521Z,11.18
2019-03-05T11:30:38.478Z,11.40
2019-03-05T11:31:38.477Z,11.36
2019-03-05T11:32:38.504Z,11.23
2019-03-05T11:33:38.505Z,11.15
2019-03-05T11:34:38.450Z,11.18
2019-03-05T11:35:39.070Z,11.00
2019-03-05T11:36:38.415Z,10.96
2019-03-05T11:37:38.412Z,10.97
2019-03-05T11:38:38.397Z,10.82
2019-03-05T11:39:38.417Z,10.74
2019-03-05T11:40:38.392Z,10.71
2019-03-05T11:41:38.364Z,10.67
2019-03-05T11:42:38.357Z,10.71
2019-03-05T11:43:38.841Z,10.75
2019-03-05T11:44:38.391Z,10.82
2019-03-05T11:45:38.331Z,10.81
2019-03-05T11:46:38.315Z,10.92
2019-03-05T11:47:38.296Z,10.84
2019-03-05T11:48:38.287Z,10.75
2019-03-05T11:49:38.310Z,10.69
2019-03-05T11:50:38.262Z,10.74
2019-03-05T11:51:38.262Z,10.72
2019-03-05T11:52:38.260Z,10.69
2019-03-05T11:53:38.239Z,10.67
2019-03-05T11:54:38.280Z,10.54
2019-03-05T11:55:38.207Z,10.42
2019-03-05T11:56:38.196Z,10.37
2019-03-05T11:57:38.204Z,10.35
2019-03-05T11:58:38.182Z,10.37
2019-03-05T11:59:38.222Z,10.37
2019-03-05T12:00:38.155Z,10.41
2019-03-05T12:01:38.152Z,10.30
2019-03-05T12:02:38.138Z,10.22
2019-03-05T12:03:38.136Z,10.19
2019-03-05T12:04:38.158Z,10.19
2019-03-05T12:05:38.126Z,10.02
2019-03-05T12:06:38.094Z,10.07
2019-03-05T12:07:38.077Z,10.05
2019-03-05T12:08:38.072Z,10.12
2019-03-05T12:09:38.094Z,10.12
2019-03-05T12:10:38.053Z,10.31
2019-03-05T12:11:38.048Z,10.17
2019-03-05T12:12:38.028Z,10.30
2019-03-05T12:13:38.011Z,10.23
2019-03-05T12:14:38.035Z,10.31
2019-03-05T12:15:38.003Z,10.44
2019-03-05T12:16:37.994Z,10.69
2019-03-05T12:17:37.978Z,10.63
2019-03-05T12:18:47.146Z,10.49
2019-03-05T12:19:37.946Z,10.56
2019-03-05T12:20:46.575Z,10.40
2019-03-05T12:21:37.938Z,10.51
2019-03-05T12:22:37.926Z,10.42
2019-03-05T12:23:37.905Z,10.49
2019-03-05T12:24:37.925Z,10.48
2019-03-05T12:25:39.813Z,10.53
2019-03-05T12:26:37.887Z,10.44
2019-03-05T12:27:37.862Z,10.51
2019-03-05T12:28:37.850Z,10.57
2019-03-05T12:29:37.890Z,10.60
2019-03-05T12:30:37.828Z,10.57
2019-03-05T12:31:37.825Z,10.56
2019-03-05T12:32:37.835Z,10.59
2019-03-05T12:33:37.813Z,10.44
2019-03-05T12:34:37.836Z,10.54
2019-03-05T12:35:37.837Z,10.60
2019-03-05T12:36:37.768Z,10.74
2019-03-05T12:37:37.767Z,10.61
2019-03-05T12:38:37.755Z,10.75
2019-03-05T12:39:37.746Z,10.86
2019-03-05T12:40:37.779Z,10.76
2019-03-05T12:41:37.712Z,10.99
2019-03-05T12:42:37.704Z,11.17
2019-03-05T12:43:37.699Z,11.11
2019-03-05T12:44:37.693Z,10.99
2019-03-05T12:45:37.716Z,11.26
2019-03-05T12:46:37.665Z,11.30
2019-03-05T12:47:37.673Z,11.45
2019-03-05T12:48:40.254Z,11.54
2019-03-05T12:49:37.629Z,11.57
2019-03-05T12:50:37.648Z,11.73
2019-03-05T12:51:37.636Z,11.94
2019-03-05T12:52:37.594Z,11.77
2019-03-05T12:53:37.582Z,11.65
2019-03-05T12:54:37.576Z,11.62
2019-03-05T12:55:37.552Z,11.37
2019-03-05T12:56:37.544Z,11.15
2019-03-05T12:57:37.579Z,11.12
2019-03-05T12:58:37.525Z,10.96
2019-03-05T12:59:37.512Z,10.76
2019-03-05T13:00:37.529Z,10.74
2019-03-05T13:01:37.498Z,10.69
2019-03-05T13:02:37.519Z,10.75
2019-03-05T13:03:37.473Z,10.78
2019-03-05T13:04:37.460Z,10.86
2019-03-05T13:05:37.451Z,10.72
2019-03-05T13:06:37.439Z,10.57
2019-03-05T13:07:37.453Z,10.68
2019-03-05T13:08:37.452Z,10.63
2019-03-05T13:09:37.403Z,10.69